createdAt,value
2018-12-31T00:00:08.828Z,86.76
2018-12-31T00:01:07.998Z,86.94
2018-12-31T00:02:08.264Z,87.04
2018-12-31T00:03:08.027Z,87.13
2018-12-31T00:04:08.306Z,87.13
2018-12-31T00:05:08.329Z,86.76
2018-12-31T00:06:08.080Z,87.13
2018-12-31T00:07:08.100Z,86.76
2018-12-31T00:08:08.117Z,86.94
2018-12-31T00:09:08.128Z,86.76
2018-12-31T00:10:08.409Z,86.94
2018-12-31T00:11:08.442Z,86.94
2018-12-31T00:12:08.458Z,86.85
2018-12-31T00:13:08.473Z,86.76
2018-12-31T00:14:08.226Z,87.04
2018-12-31T00:15:08.517Z,86.76
2018-12-31T00:16:08.274Z,86.94
2018-12-31T00:17:08.285Z,87.04
2018-12-31T00:18:08.297Z,86.85
2018-12-31T00:19:08.324Z,86.94
2018-12-31T00:20:08.611Z,86.94
2018-12-31T00:21:08.622Z,86.66
2018-12-31T00:22:08.368Z,86.85
2018-12-31T00:23:08.655Z,86.76
2018-12-31T00:24:08.408Z,86.94
2018-12-31T00:25:08.420Z,86.94
2018-12-31T00:26:08.454Z,86.94
2018-12-31T00:27:08.474Z,86.94
2018-12-31T00:28:08.757Z,87.04
2018-12-31T00:29:08.522Z,87.23
2018-12-31T00:30:08.528Z,87.32
2018-12-31T00:31:08.535Z,87.23
2018-12-31T00:32:08.823Z,87.13
2018-12-31T00:33:08.845Z,86.57
2018-12-31T00:34:08.867Z,87.04
2018-12-31T00:35:08.694Z,87.52
2018-12-31T00:36:08.621Z,87.04
2018-12-31T00:37:08.917Z,86.76
2018-12-31T00:38:08.918Z,87.13
2018-12-31T00:39:08.684Z,87.13
2018-12-31T00:40:08.960Z,86.76
2018-12-31T00:41:08.724Z,86.94
2018-12-31T00:42:08.729Z,86.94
2018-12-31T00:43:08.751Z,87.13
2018-12-31T00:44:08.769Z,86.85
2018-12-31T00:45:09.061Z,87.04
2018-12-31T00:46:09.086Z,87.04
2018-12-31T00:47:09.089Z,86.94
2018-12-31T00:48:09.115Z,87.04
2018-12-31T00:49:09.123Z,87.23
2018-12-31T00:50:09.137Z,87.13
2018-12-31T00:51:08.907Z,86.76
2018-12-31T00:52:08.913Z,86.94
2018-12-31T00:53:08.945Z,87.13
2018-12-31T00:54:08.969Z,87.23
2018-12-31T00:55:08.976Z,86.94
2018-12-31T00:56:08.992Z,87.13
2018-12-31T00:57:09.009Z,86.94
2018-12-31T00:58:09.291Z,86.94
2018-12-31T00:59:09.326Z,86.85
2018-12-31T01:00:09.073Z,86.94
2018-12-31T01:01:09.356Z,86.94
2018-12-31T01:02:09.108Z,87.23
2018-12-31T01:03:09.381Z,87.13
2018-12-31T01:04:09.227Z,87.04
2018-12-31T01:05:09.164Z,87.04
2018-12-31T01:06:09.443Z,87.04
2018-12-31T01:07:09.195Z,87.13
2018-12-31T01:08:09.483Z,87.04
2018-12-31T01:09:09.489Z,87.04
2018-12-31T01:10:09.520Z,87.23
2018-12-31T01:11:09.531Z,86.85
2018-12-31T01:12:09.553Z,87.13
2018-12-31T01:13:09.583Z,86.94
2018-12-31T01:14:09.322Z,87.13
2018-12-31T01:15:09.612Z,86.94
2018-12-31T01:16:09.369Z,86.94
2018-12-31T01:17:09.374Z,86.94
2018-12-31T01:18:09.654Z,87.13
2018-12-31T01:19:09.416Z,87.13
2018-12-31T01:20:09.687Z,87.32
2018-12-31T01:21:09.717Z,86.85
2018-12-31T01:22:09.726Z,86.76
2018-12-31T01:23:09.495Z,87.04
2018-12-31T01:24:09.777Z,86.94
2018-12-31T01:25:09.535Z,86.76
2018-12-31T01:26:09.539Z,86.94
2018-12-31T01:27:09.567Z,86.94
2018-12-31T01:28:09.854Z,86.94
2018-12-31T01:29:09.595Z,86.76
2018-12-31T01:30:09.880Z,86.94
2018-12-31T01:31:09.906Z,86.94
2018-12-31T01:32:09.660Z,86.94
2018-12-31T01:33:09.673Z,86.76
2018-12-31T01:34:09.702Z,87.04
2018-12-31T01:35:09.977Z,86.85
2018-12-31T01:36:09.996Z,86.94
2018-12-31T01:37:09.756Z,86.94
2018-12-31T01:38:09.768Z,86.94
2018-12-31T01:39:10.037Z,86.94
2018-12-31T01:40:09.814Z,87.04
2018-12-31T01:41:09.818Z,86.47
2018-12-31T01:42:09.835Z,86.85
2018-12-31T01:43:09.857Z,86.94
2018-12-31T01:44:10.128Z,86.94
2018-12-31T01:45:09.901Z,86.85
2018-12-31T01:46:10.167Z,86.94
2018-12-31T01:47:09.946Z,87.04
2018-12-31T01:48:09.957Z,87.13
2018-12-31T01:49:09.980Z,86.76
2018-12-31T01:50:10.259Z,86.94
2018-12-31T01:51:13.968Z,86.94
2018-12-31T01:52:10.281Z,86.94
2018-12-31T01:53:10.293Z,87.04
2018-12-31T01:54:10.063Z,87.13
2018-12-31T01:55:10.083Z,87.13
2018-12-31T01:56:10.091Z,86.94
2018-12-31T01:57:10.108Z,87.04
2018-12-31T01:58:10.401Z,86.94
2018-12-31T01:59:10.159Z,87.13
2018-12-31T02:00:10.175Z,86.94
2018-12-31T02:01:10.269Z,86.94
2018-12-31T02:02:10.216Z,86.94
2018-12-31T02:03:10.495Z,86.94
2018-12-31T02:04:10.245Z,86.76
2018-12-31T02:05:10.528Z,86.85
2018-12-31T02:06:10.546Z,87.04
2018-12-31T02:07:10.548Z,87.13
2018-12-31T02:08:10.325Z,86.94
2018-12-31T02:09:10.332Z,86.76
2018-12-31T02:10:10.362Z,86.94
2018-12-31T02:11:10.365Z,86.94
2018-12-31T02:12:10.385Z,87.13
2018-12-31T02:13:10.402Z,87.04
2018-12-31T02:14:10.680Z,87.04
2018-12-31T02:15:10.452Z,87.13
2018-12-31T02:16:10.458Z,87.04
2018-12-31T02:17:10.477Z,87.13
2018-12-31T02:18:10.767Z,87.13
2018-12-31T02:19:10.787Z,86.76
2018-12-31T02:20:10.794Z,87.04
2018-12-31T02:21:10.560Z,87.42
2018-12-31T02:22:10.574Z,87.04
2018-12-31T02:23:10.589Z,87.13
2018-12-31T02:24:10.608Z,86.94
2018-12-31T02:25:10.896Z,87.04
2018-12-31T02:26:10.897Z,87.04
2018-12-31T02:27:10.919Z,87.13
2018-12-31T02:28:10.691Z,87.13
2018-12-31T02:29:10.696Z,87.04
2018-12-31T02:30:10.980Z,87.04
2018-12-31T02:31:11.007Z,86.85
2018-12-31T02:32:11.017Z,86.76
2018-12-31T02:33:11.042Z,87.13
2018-12-31T02:34:11.058Z,86.76
2018-12-31T02:35:11.068Z,86.76
2018-12-31T02:36:10.857Z,86.94
2018-12-31T02:37:11.205Z,86.94
2018-12-31T02:38:11.147Z,86.94
2018-12-31T02:39:11.158Z,86.94
2018-12-31T02:40:10.906Z,86.85
2018-12-31T02:41:11.192Z,86.57
2018-12-31T02:42:10.943Z,86.76
2018-12-31T02:43:10.956Z,86.94
2018-12-31T02:44:10.977Z,86.94
2018-12-31T02:45:10.992Z,86.94
2018-12-31T02:46:11.270Z,86.47
2018-12-31T02:47:11.037Z,87.04
2018-12-31T02:48:11.055Z,86.94
2018-12-31T02:49:11.072Z,86.94
2018-12-31T02:50:11.357Z,86.76
2018-12-31T02:51:11.361Z,86.85
2018-12-31T02:52:11.380Z,86.94
2018-12-31T02:53:11.146Z,86.94
2018-12-31T02:54:11.160Z,87.04
2018-12-31T02:55:11.178Z,86.85
2018-12-31T02:56:11.454Z,86.94
2018-12-31T02:57:11.221Z,86.94
2018-12-31T02:58:11.243Z,86.85
2018-12-31T02:59:11.258Z,87.04
2018-12-31T03:00:11.528Z,86.94
2018-12-31T03:01:11.292Z,87.04
2018-12-31T03:02:11.582Z,86.94
2018-12-31T03:03:11.332Z,87.04
2018-12-31T03:04:11.351Z,87.13
2018-12-31T03:05:11.639Z,86.85
2018-12-31T03:06:11.651Z,86.8
2018-12-31T03:07:11.403Z,86.94
2018-12-31T03:08:11.683Z,86.94
2018-12-31T03:09:11.446Z,86.76
2018-12-31T03:10:11.470Z,86.94
2018-12-31T03:11:11.484Z,87.13
2018-12-31T03:12:11.748Z,86.94
2018-12-31T03:13:11.523Z,86.94
2018-12-31T03:14:11.536Z,86.76
2018-12-31T03:15:11.547Z,87.13
2018-12-31T03:16:11.836Z,86.76
2018-12-31T03:17:11.589Z,86.9
2018-12-31T03:18:11.608Z,86.99
2018-12-31T03:19:11.633Z,86.94
2018-12-31T03:20:11.649Z,86.76
2018-12-31T03:21:11.670Z,86.76
2018-12-31T03:22:11.945Z,86.76
2018-12-31T03:23:11.695Z,86.94
2018-12-31T03:24:11.971Z,86.94
2018-12-31T03:25:11.740Z,86.94
2018-12-31T03:26:11.798Z,86.94
2018-12-31T03:27:11.765Z,86.8
2018-12-31T03:28:12.060Z,86.76
2018-12-31T03:29:12.086Z,87.04
2018-12-31T03:30:12.094Z,86.8
2018-12-31T03:31:11.858Z,86.85
2018-12-31T03:32:12.127Z,87.04
2018-12-31T03:33:11.880Z,87.04
2018-12-31T03:34:12.173Z,86.94
2018-12-31T03:35:12.181Z,87.04
2018-12-31T03:36:12.201Z,87.04
2018-12-31T03:37:11.960Z,86.76
2018-12-31T03:38:11.984Z,87.13
2018-12-31T03:39:12.249Z,87.04
2018-12-31T03:40:12.276Z,87.13
2018-12-31T03:41:12.023Z,86.94
2018-12-31T03:42:12.047Z,86.76
2018-12-31T03:43:12.323Z,87.13
2018-12-31T03:44:13.378Z,86.94
2018-12-31T03:45:12.107Z,86.85
2018-12-31T03:46:12.129Z,86.85
2018-12-31T03:47:12.340Z,86.9
2018-12-31T03:48:12.428Z,87.04
2018-12-31T03:49:12.431Z,86.85
2018-12-31T03:50:12.202Z,86.99
2018-12-31T03:51:12.468Z,86.94
2018-12-31T03:52:12.229Z,86.76
2018-12-31T03:53:12.253Z,87.04
2018-12-31T03:54:12.268Z,87.08
2018-12-31T03:55:12.286Z,86.94
2018-12-31T03:56:12.318Z,86.94
2018-12-31T03:57:12.575Z,87.04
2018-12-31T03:58:12.348Z,87.18
2018-12-31T03:59:12.360Z,86.76
2018-12-31T04:00:12.645Z,87.18
2018-12-31T04:01:12.391Z,86.94
2018-12-31T04:02:12.688Z,87.04
2018-12-31T04:03:12.772Z,87.04
2018-12-31T04:04:12.460Z,87.08
2018-12-31T04:05:12.474Z,87.08
2018-12-31T04:06:12.495Z,86.94
2018-12-31T04:07:12.505Z,86.8
2018-12-31T04:08:12.793Z,87.23
2018-12-31T04:09:12.540Z,87.08
2018-12-31T04:10:12.835Z,87.08
2018-12-31T04:11:12.584Z,86.99
2018-12-31T04:12:12.858Z,87.08
2018-12-31T04:13:12.620Z,87.08
2018-12-31T04:14:12.888Z,86.99
2018-12-31T04:15:12.915Z,86.8
2018-12-31T04:16:12.678Z,86.8
2018-12-31T04:17:12.691Z,86.99
2018-12-31T04:18:12.977Z,86.8
2018-12-31T04:19:12.725Z,86.99
2018-12-31T04:20:12.997Z,86.8
2018-12-31T04:21:13.034Z,87.08
2018-12-31T04:22:13.043Z,86.99
2018-12-31T04:23:12.809Z,86.8
2018-12-31T04:24:13.076Z,87.18
2018-12-31T04:25:12.866Z,86.8
2018-12-31T04:26:12.854Z,86.99
2018-12-31T04:27:12.879Z,86.99
2018-12-31T04:28:12.900Z,87.08
2018-12-31T04:29:13.180Z,87.08
2018-12-31T04:30:13.244Z,87.18
2018-12-31T04:31:12.948Z,87.37
2018-12-31T04:32:12.976Z,87.32
2018-12-31T04:33:12.994Z,86.99
2018-12-31T04:34:13.253Z,86.99
2018-12-31T04:35:13.023Z,86.94
2018-12-31T04:36:13.293Z,87.65
2018-12-31T04:37:13.060Z,87.37
2018-12-31T04:38:13.072Z,87.18
2018-12-31T04:39:13.105Z,87.18
2018-12-31T04:40:13.383Z,86.85
2018-12-31T04:41:13.395Z,87.08
2018-12-31T04:42:13.422Z,87.08
2018-12-31T04:43:13.168Z,86.99
2018-12-31T04:44:13.456Z,87.18
2018-12-31T04:45:13.205Z,87.37
2018-12-31T04:46:13.480Z,86.8
2018-12-31T04:47:13.241Z,86.9
2018-12-31T04:48:13.258Z,86.8
2018-12-31T04:49:13.544Z,86.9
2018-12-31T04:50:13.292Z,87.08
2018-12-31T04:51:13.608Z,86.8
2018-12-31T04:52:13.336Z,86.99
2018-12-31T04:53:13.625Z,86.99
2018-12-31T04:54:13.626Z,87.18
2018-12-31T04:55:13.391Z,87.08
2018-12-31T04:56:13.408Z,86.9
2018-12-31T04:57:13.694Z,87.46
2018-12-31T04:58:13.437Z,86.99
2018-12-31T04:59:13.468Z,87.13
2018-12-31T05:00:13.735Z,87.52
2018-12-31T05:01:13.756Z,86.99
2018-12-31T05:02:13.790Z,87.08
2018-12-31T05:03:13.530Z,86.8
2018-12-31T05:04:13.551Z,87.08
2018-12-31T05:05:13.569Z,87.18
2018-12-31T05:06:13.861Z,87.18
2018-12-31T05:07:13.872Z,86.94
2018-12-31T05:08:13.894Z,87.37
2018-12-31T05:09:13.649Z,87.27
2018-12-31T05:10:13.916Z,87.27
2018-12-31T05:11:13.943Z,87.08
2018-12-31T05:12:13.710Z,87.18
2018-12-31T05:13:13.978Z,87.08
2018-12-31T05:14:13.744Z,87.18
2018-12-31T05:15:13.763Z,87.08
2018-12-31T05:16:14.053Z,86.8
2018-12-31T05:17:13.787Z,86.99
2018-12-31T05:18:13.812Z,86.99
2018-12-31T05:19:13.833Z,86.99
2018-12-31T05:20:14.117Z,86.99
2018-12-31T05:21:14.129Z,86.8
2018-12-31T05:22:14.149Z,86.8
2018-12-31T05:23:14.171Z,86.99
2018-12-31T05:24:14.189Z,86.99
2018-12-31T05:25:13.943Z,86.8
2018-12-31T05:26:14.220Z,87.18
2018-12-31T05:27:13.975Z,86.8
2018-12-31T05:28:14.001Z,86.99
2018-12-31T05:29:14.267Z,86.8
2018-12-31T05:30:14.031Z,86.9
2018-12-31T05:31:14.053Z,86.99
2018-12-31T05:32:14.073Z,86.8
2018-12-31T05:33:14.084Z,87.18
2018-12-31T05:34:14.115Z,86.99
2018-12-31T05:35:14.126Z,86.99
2018-12-31T05:36:14.158Z,86.8
2018-12-31T05:37:14.169Z,86.99
2018-12-31T05:38:14.446Z,86.99
2018-12-31T05:39:14.485Z,86.99
2018-12-31T05:40:14.474Z,86.8
2018-12-31T05:41:14.494Z,87.18
2018-12-31T05:42:14.243Z,86.99
2018-12-31T05:43:14.260Z,86.99
2018-12-31T05:44:14.549Z,86.8
2018-12-31T05:45:14.296Z,86.99
2018-12-31T05:46:14.590Z,86.99
2018-12-31T05:47:14.335Z,86.9
2018-12-31T05:48:14.632Z,86.8
2018-12-31T05:49:14.636Z,86.99
2018-12-31T05:50:14.402Z,86.99
2018-12-31T05:51:14.680Z,86.9
2018-12-31T05:52:14.685Z,87.08
2018-12-31T05:53:14.705Z,87.18
2018-12-31T05:54:14.473Z,86.99
2018-12-31T05:55:14.495Z,86.8
2018-12-31T05:56:14.765Z,87.18
2018-12-31T05:57:14.530Z,86.99
2018-12-31T05:58:14.550Z,86.99
2018-12-31T05:59:14.555Z,86.99
2018-12-31T06:00:14.582Z,86.99
2018-12-31T06:01:14.861Z,86.9
2018-12-31T06:02:14.880Z,86.8
2018-12-31T06:03:14.638Z,86.99
2018-12-31T06:04:14.919Z,86.99
2018-12-31T06:05:14.663Z,87.18
2018-12-31T06:06:14.956Z,87.08
2018-12-31T06:07:14.987Z,86.99
2018-12-31T06:08:14.721Z,87.18
2018-12-31T06:09:15.021Z,87.08
2018-12-31T06:10:15.013Z,87.08
2018-12-31T06:11:15.039Z,86.8
2018-12-31T06:12:14.805Z,86.99
2018-12-31T06:13:15.069Z,86.8
2018-12-31T06:14:15.108Z,86.99
2018-12-31T06:15:15.109Z,86.8
2018-12-31T06:16:15.127Z,87.18
2018-12-31T06:17:15.144Z,86.8
2018-12-31T06:18:14.915Z,87.08
2018-12-31T06:19:14.932Z,87.08
2018-12-31T06:20:14.938Z,86.99
2018-12-31T06:21:15.231Z,86.8
2018-12-31T06:22:15.237Z,87.08
2018-12-31T06:23:15.254Z,86.8
2018-12-31T06:24:15.025Z,86.61
2018-12-31T06:25:15.295Z,86.9
2018-12-31T06:26:15.308Z,86.8
2018-12-31T06:27:15.330Z,86.9
2018-12-31T06:28:15.342Z,86.8
2018-12-31T06:29:15.108Z,86.9
2018-12-31T06:30:15.131Z,86.99
2018-12-31T06:31:15.144Z,86.7
2018-12-31T06:32:15.415Z,86.9
2018-12-31T06:33:15.447Z,86.32
2018-12-31T06:34:15.193Z,86.8
2018-12-31T06:35:15.477Z,86.8
2018-12-31T06:36:15.513Z,86.99
2018-12-31T06:37:15.521Z,86.8
2018-12-31T06:38:15.270Z,86.8
2018-12-31T06:39:15.290Z,87.18
2018-12-31T06:40:15.302Z,86.99
2018-12-31T06:41:15.593Z,86.99
2018-12-31T06:42:15.615Z,86.99
2018-12-31T06:43:15.615Z,86.9
2018-12-31T06:44:15.650Z,86.8
2018-12-31T06:45:15.667Z,86.61
2018-12-31T06:46:15.685Z,87.08
2018-12-31T06:47:15.430Z,86.99
2018-12-31T06:48:15.452Z,87.08
2018-12-31T06:49:15.466Z,86.99
2018-12-31T06:50:15.489Z,86.99
2018-12-31T06:51:15.508Z,87.08
2018-12-31T06:52:15.797Z,86.8
2018-12-31T06:53:15.545Z,86.99
2018-12-31T06:54:15.835Z,86.9
2018-12-31T06:55:15.582Z,86.8
2018-12-31T06:56:15.598Z,86.99
2018-12-31T06:57:15.624Z,86.9
2018-12-31T06:58:15.631Z,86.8
2018-12-31T06:59:15.675Z,86.9
2018-12-31T07:00:15.951Z,86.9
2018-12-31T07:01:15.689Z,87.08
2018-12-31T07:02:15.708Z,86.8
2018-12-31T07:03:15.724Z,86.8
2018-12-31T07:04:15.744Z,86.99
2018-12-31T07:05:15.756Z,86.32
2018-12-31T07:06:15.775Z,87.08
2018-12-31T07:07:16.076Z,86.9
2018-12-31T07:08:16.081Z,86.8
2018-12-31T07:09:16.095Z,86.9
2018-12-31T07:10:16.111Z,87.08
2018-12-31T07:11:15.870Z,86.51
2018-12-31T07:12:15.894Z,86.9
2018-12-31T07:13:16.167Z,86.9
2018-12-31T07:14:15.931Z,86.9
2018-12-31T07:15:15.954Z,86.9
2018-12-31T07:16:15.973Z,86.99
2018-12-31T07:17:15.982Z,86.99
2018-12-31T07:18:16.273Z,86.8
2018-12-31T07:19:16.012Z,86.8
2018-12-31T07:20:16.304Z,86.99
2018-12-31T07:21:16.311Z,86.9
2018-12-31T07:22:16.331Z,86.99
2018-12-31T07:23:16.345Z,87.08
2018-12-31T07:24:16.367Z,86.99
2018-12-31T07:25:16.130Z,86.8
2018-12-31T07:26:16.147Z,86.7
2018-12-31T07:27:16.437Z,86.51
2018-12-31T07:28:16.190Z,86.51
2018-12-31T07:29:16.200Z,86.42
2018-12-31T07:30:16.226Z,86.61
2018-12-31T07:31:16.493Z,86.61
2018-12-31T07:32:16.258Z,86.42
2018-12-31T07:33:16.542Z,86.22
2018-12-31T07:34:16.559Z,86.22
2018-12-31T07:35:16.571Z,86.22
2018-12-31T07:36:16.335Z,86.51
2018-12-31T07:37:16.354Z,86.51
2018-12-31T07:38:16.373Z,86.61
2018-12-31T07:39:16.386Z,86.51
2018-12-31T07:40:16.663Z,86.51
2018-12-31T07:41:16.431Z,86.32
2018-12-31T07:42:16.437Z,86.51
2018-12-31T07:43:16.455Z,86.42
2018-12-31T07:44:16.476Z,86.51
2018-12-31T07:45:16.494Z,86.42
2018-12-31T07:46:16.772Z,86.51
2018-12-31T07:47:16.528Z,86.32
2018-12-31T07:48:16.819Z,86.42
2018-12-31T07:49:16.566Z,86.32
2018-12-31T07:50:16.845Z,86.51
2018-12-31T07:51:16.607Z,86.42
2018-12-31T07:52:16.637Z,86.32
2018-12-31T07:53:16.903Z,86.42
2018-12-31T07:54:16.919Z,86.51
2018-12-31T07:55:16.686Z,86.51
2018-12-31T07:56:16.960Z,86.61
2018-12-31T07:57:16.720Z,86.42
2018-12-31T07:58:16.993Z,86.51
2018-12-31T07:59:16.772Z,86.51
2018-12-31T08:00:16.773Z,86.51
2018-12-31T08:01:17.065Z,86.51
2018-12-31T08:02:17.079Z,86.61
2018-12-31T08:03:16.834Z,86.7
2018-12-31T08:04:18.297Z,86.51
2018-12-31T08:05:16.864Z,86.7
2018-12-31T08:06:17.149Z,86.61
2018-12-31T08:07:17.161Z,86.61
2018-12-31T08:08:16.930Z,86.61
2018-12-31T08:09:17.215Z,86.61
2018-12-31T08:10:16.968Z,86.51
2018-12-31T08:11:17.235Z,86.61
2018-12-31T08:12:17.255Z,86.61
2018-12-31T08:13:17.346Z,86.42
2018-12-31T08:14:17.042Z,86.51
2018-12-31T08:15:17.049Z,86.8
2018-12-31T08:16:17.329Z,86.9
2018-12-31T08:17:17.097Z,86.9
2018-12-31T08:18:17.117Z,86.51
2018-12-31T08:19:17.405Z,86.8
2018-12-31T08:20:17.409Z,86.7
2018-12-31T08:21:17.429Z,86.9
2018-12-31T08:22:17.183Z,86.61
2018-12-31T08:23:17.201Z,86.51
2018-12-31T08:24:17.475Z,86.51
2018-12-31T08:25:17.500Z,86.61
2018-12-31T08:26:17.523Z,86.51
2018-12-31T08:27:17.283Z,86.8
2018-12-31T08:28:17.558Z,86.22
2018-12-31T08:29:17.319Z,86.13
2018-12-31T08:30:18.858Z,86.36
2018-12-31T08:31:17.352Z,86.04
2018-12-31T08:32:17.359Z,86.08
2018-12-31T08:33:17.391Z,86.27
2018-12-31T08:34:17.409Z,86.08
2018-12-31T08:35:17.425Z,86.22
2018-12-31T08:36:17.438Z,86.18
2018-12-31T08:37:17.460Z,86.18
2018-12-31T08:38:17.481Z,86.04
2018-12-31T08:39:17.503Z,86.36
2018-12-31T08:40:17.509Z,86.08
2018-12-31T08:41:17.802Z,86.27
2018-12-31T08:42:17.546Z,86.04
2018-12-31T08:43:17.577Z,86.22
2018-12-31T08:44:17.593Z,86.22
2018-12-31T08:45:17.882Z,86.22
2018-12-31T08:46:17.627Z,86.27
2018-12-31T08:47:17.900Z,85.66
2018-12-31T08:48:17.664Z,85.66
2018-12-31T08:49:17.680Z,86.18
2018-12-31T08:50:17.700Z,86.36
2018-12-31T08:51:17.968Z,85.99
2018-12-31T08:52:17.737Z,86.36
2018-12-31T08:53:17.748Z,85.8
2018-12-31T08:54:17.772Z,85.7
2018-12-31T08:55:18.058Z,86.36
2018-12-31T08:56:18.075Z,85.7
2018-12-31T08:57:18.078Z,85.7
2018-12-31T08:58:17.844Z,86.18
2018-12-31T08:59:18.121Z,86.08
2018-12-31T09:00:18.149Z,86.36
2018-12-31T09:01:18.155Z,85.99
2018-12-31T09:02:17.919Z,85.99
2018-12-31T09:03:18.194Z,86.27
2018-12-31T09:04:18.215Z,86.36
2018-12-31T09:05:17.987Z,86.18
2018-12-31T09:06:17.987Z,86.27
2018-12-31T09:07:18.276Z,85.99
2018-12-31T09:08:18.282Z,86.18
2018-12-31T09:09:18.398Z,85.8
2018-12-31T09:10:18.341Z,85.99
2018-12-31T09:11:18.095Z,85.8
2018-12-31T09:12:18.099Z,85.99
2018-12-31T09:13:18.392Z,85.99
2018-12-31T09:14:18.394Z,85.8
2018-12-31T09:15:18.163Z,85.7
2018-12-31T09:16:18.188Z,85.7
2018-12-31T09:17:18.195Z,85.89
2018-12-31T09:18:18.215Z,85.51
2018-12-31T09:19:18.501Z,85.13
2018-12-31T09:20:18.265Z,85.6
2018-12-31T09:21:18.528Z,85.13
2018-12-31T09:22:18.293Z,85.13
2018-12-31T09:23:18.576Z,85.6
2018-12-31T09:24:18.584Z,85.99
2018-12-31T09:25:18.341Z,85.99
2018-12-31T09:26:18.623Z,85.89
2018-12-31T09:27:18.392Z,85.8
2018-12-31T09:28:18.669Z,85.99
2018-12-31T09:29:18.679Z,85.7
2018-12-31T09:30:18.432Z,85.6
2018-12-31T09:31:18.452Z,85.6
2018-12-31T09:32:18.485Z,85.6
2018-12-31T09:33:18.488Z,85.6
2018-12-31T09:34:18.767Z,85.7
2018-12-31T09:35:18.798Z,85.6
2018-12-31T09:36:18.810Z,85.99
2018-12-31T09:37:18.576Z,85.99
2018-12-31T09:38:18.585Z,86.36
2018-12-31T09:39:18.609Z,86.36
2018-12-31T09:40:18.887Z,86.36
2018-12-31T09:41:18.651Z,86.27
2018-12-31T09:42:18.934Z,86.18
2018-12-31T09:43:18.686Z,85.99
2018-12-31T09:44:18.949Z,85.99
2018-12-31T09:45:18.976Z,85.99
2018-12-31T09:46:18.991Z,85.8
2018-12-31T09:47:18.768Z,85.89
2018-12-31T09:48:18.782Z,85.99
2018-12-31T09:49:18.799Z,85.13
2018-12-31T09:50:18.806Z,85.6
2018-12-31T09:51:19.088Z,85.51
2018-12-31T09:52:19.119Z,85.6
2018-12-31T09:53:19.132Z,85.6
2018-12-31T09:54:18.896Z,85.6
2018-12-31T09:55:19.176Z,85.8
2018-12-31T09:56:19.178Z,85.6
2018-12-31T09:57:18.938Z,84.94
2018-12-31T09:58:19.215Z,85.22
2018-12-31T09:59:19.056Z,85.6
2018-12-31T10:00:19.259Z,85.8
2018-12-31T10:01:19.024Z,84.84
2018-12-31T10:02:19.309Z,85.03
2018-12-31T10:03:19.305Z,85.7
2018-12-31T10:04:19.344Z,85.22
2018-12-31T10:05:19.099Z,85.89
2018-12-31T10:06:19.114Z,85.41
2018-12-31T10:07:19.385Z,85.41
2018-12-31T10:08:19.163Z,85.08
2018-12-31T10:09:19.439Z,85.03
2018-12-31T10:10:19.195Z,85.7
2018-12-31T10:11:19.469Z,85.51
2018-12-31T10:12:19.230Z,85.08
2018-12-31T10:13:19.241Z,85.22
2018-12-31T10:14:19.511Z,85.27
2018-12-31T10:15:19.281Z,85.41
2018-12-31T10:16:19.306Z,85.36
2018-12-31T10:17:19.573Z,85.27
2018-12-31T10:18:19.586Z,85.27
2018-12-31T10:19:19.624Z,85.27
2018-12-31T10:20:19.375Z,85.46
2018-12-31T10:21:19.659Z,85.36
2018-12-31T10:22:19.407Z,84.88
2018-12-31T10:23:19.693Z,84.69
2018-12-31T10:24:19.713Z,84.79
2018-12-31T10:25:19.720Z,84.79
2018-12-31T10:26:19.488Z,84.79
2018-12-31T10:27:19.775Z,85.08
2018-12-31T10:28:19.525Z,84.98
2018-12-31T10:29:20.769Z,85.08
2018-12-31T10:30:19.583Z,85.46
2018-12-31T10:31:19.589Z,85.08
2018-12-31T10:32:19.602Z,85.08
2018-12-31T10:33:19.610Z,85.08
2018-12-31T10:34:19.884Z,85.17
2018-12-31T10:35:19.919Z,84.79
2018-12-31T10:36:19.924Z,84.88
2018-12-31T10:37:19.965Z,84.88
2018-12-31T10:38:19.965Z,84.69
2018-12-31T10:39:19.730Z,84.69
2018-12-31T10:40:19.741Z,84.69
2018-12-31T10:41:20.036Z,84.69
2018-12-31T10:42:20.061Z,84.69
2018-12-31T10:43:20.061Z,84.88
2018-12-31T10:44:19.818Z,84.88
2018-12-31T10:45:19.844Z,85.08
2018-12-31T10:46:19.857Z,85.17
2018-12-31T10:47:20.138Z,85.27
2018-12-31T10:48:19.891Z,85.46
2018-12-31T10:49:19.917Z,85.08
2018-12-31T10:50:19.935Z,85.36
2018-12-31T10:51:19.947Z,84.88
2018-12-31T10:52:19.980Z,85.27
2018-12-31T10:53:20.262Z,84.69
2018-12-31T10:54:20.265Z,84.69
2018-12-31T10:55:20.282Z,84.88
2018-12-31T10:56:20.043Z,84.88
2018-12-31T10:57:20.243Z,84.88
2018-12-31T10:58:20.082Z,84.98
2018-12-31T10:59:20.373Z,84.88
2018-12-31T11:00:20.382Z,84.69
2018-12-31T11:01:20.412Z,84.6
2018-12-31T11:02:20.205Z,84.41
2018-12-31T11:03:20.452Z,84.22
2018-12-31T11:04:20.206Z,84.5
2018-12-31T11:05:20.221Z,84.79
2018-12-31T11:06:20.495Z,84.5
2018-12-31T11:07:20.570Z,84.41
2018-12-31T11:08:20.279Z,84.6
2018-12-31T11:09:20.294Z,84.6
2018-12-31T11:10:21.729Z,84.6
2018-12-31T11:11:20.331Z,84.69
2018-12-31T11:12:20.617Z,84.41
2018-12-31T11:13:20.371Z,84.69
2018-12-31T11:14:20.643Z,84.5
2018-12-31T11:15:20.402Z,84.41
2018-12-31T11:16:20.433Z,84.69
2018-12-31T11:17:20.706Z,84.69
2018-12-31T11:18:20.716Z,84.69
2018-12-31T11:19:20.483Z,84.5
2018-12-31T11:20:20.512Z,84.5
2018-12-31T11:21:20.855Z,84.5
2018-12-31T11:22:20.536Z,84.41
2018-12-31T11:23:20.562Z,84.31
2018-12-31T11:24:20.842Z,84.12
2018-12-31T11:25:20.866Z,84.5
2018-12-31T11:26:20.617Z,84.6
2018-12-31T11:27:20.639Z,84.79
2018-12-31T11:28:20.650Z,84.69
2018-12-31T11:29:21.012Z,84.5
2018-12-31T11:30:20.722Z,84.5
2018-12-31T11:31:20.978Z,84.41
2018-12-31T11:32:20.997Z,84.31
2018-12-31T11:33:20.751Z,84.5
2018-12-31T11:34:21.021Z,84.12
2018-12-31T11:35:20.791Z,84.31
2018-12-31T11:36:20.807Z,84.41
2018-12-31T11:37:20.826Z,84.5
2018-12-31T11:38:20.848Z,84.41
2018-12-31T11:39:21.118Z,84.31
2018-12-31T11:40:21.153Z,84.41
2018-12-31T11:41:20.904Z,84.5
2018-12-31T11:42:20.925Z,84.12
2018-12-31T11:43:21.207Z,84.5
2018-12-31T11:44:20.949Z,84.12
2018-12-31T11:45:20.977Z,84.41
2018-12-31T11:46:21.004Z,84.22
2018-12-31T11:47:21.012Z,84.31
2018-12-31T11:48:21.031Z,84.5
2018-12-31T11:49:21.311Z,84.41
2018-12-31T11:50:21.066Z,84.69
2018-12-31T11:51:21.097Z,84.6
2018-12-31T11:52:21.111Z,84.5
2018-12-31T11:53:21.396Z,84.6
2018-12-31T11:54:21.143Z,84.6
2018-12-31T11:55:21.166Z,84.6
2018-12-31T11:56:21.435Z,84.5
2018-12-31T11:57:21.200Z,84.79
2018-12-31T11:58:21.224Z,84.69
2018-12-31T11:59:21.495Z,84.88
2018-12-31T12:00:21.525Z,84.31
2018-12-31T12:01:21.549Z,84.98
2018-12-31T12:02:25.829Z,84.5
2018-12-31T12:03:21.567Z,84.69
2018-12-31T12:04:21.328Z,85.08
2018-12-31T12:05:21.624Z,84.69
2018-12-31T12:06:21.376Z,84.98
2018-12-31T12:07:21.386Z,84.69
2018-12-31T12:08:21.430Z,85.46
2018-12-31T12:09:21.442Z,85.17
2018-12-31T12:10:21.717Z,84.88
2018-12-31T12:11:21.739Z,85.27
2018-12-31T12:12:21.491Z,84.88
2018-12-31T12:13:21.760Z,84.88
2018-12-31T12:14:21.568Z,85.17
2018-12-31T12:15:21.559Z,85.46
2018-12-31T12:16:21.573Z,84.88
2018-12-31T12:17:21.853Z,85.27
2018-12-31T12:18:21.601Z,85.27
2018-12-31T12:19:21.882Z,85.46
2018-12-31T12:20:21.902Z,85.46
2018-12-31T12:21:21.666Z,84.98
2018-12-31T12:22:22.232Z,85.17
2018-12-31T12:23:21.959Z,84.88
2018-12-31T12:24:21.730Z,85.17
2018-12-31T12:25:21.745Z,85.08
2018-12-31T12:26:21.761Z,85.08
2018-12-31T12:27:22.026Z,85.08
2018-12-31T12:28:22.064Z,85.08
2018-12-31T12:29:22.085Z,85.17
2018-12-31T12:30:21.842Z,85.08
2018-12-31T12:31:22.192Z,85.17
2018-12-31T12:32:22.130Z,85.17
2018-12-31T12:33:21.889Z,85.08
2018-12-31T12:34:21.919Z,85.08
2018-12-31T12:35:21.938Z,84.88
2018-12-31T12:36:22.213Z,85.08
2018-12-31T12:37:21.961Z,84.88
2018-12-31T12:38:21.986Z,85.17
2018-12-31T12:39:22.009Z,85.08
2018-12-31T12:40:22.670Z,84.79
2018-12-31T12:41:22.044Z,84.69
2018-12-31T12:42:22.313Z,85.27
2018-12-31T12:43:22.396Z,85.27
2018-12-31T12:44:22.370Z,85.46
2018-12-31T12:45:22.389Z,85.36
2018-12-31T12:46:22.393Z,85.46
2018-12-31T12:47:22.426Z,85.46
2018-12-31T12:48:22.170Z,85.27
2018-12-31T12:49:22.612Z,85.46
2018-12-31T12:50:22.467Z,85.46
2018-12-31T12:51:22.488Z,85.27
2018-12-31T12:52:22.253Z,85.93
2018-12-31T12:53:22.525Z,85.93
2018-12-31T12:54:22.294Z,85.08
2018-12-31T12:55:22.578Z,85.17
2018-12-31T12:56:22.333Z,85.64
2018-12-31T12:57:22.361Z,85.64